sensor_id;sensor_type;location;lat;lon;timestamp;pressure;altitude;pressure_sealevel;temperature;humidity
50636;BME280;36598;46.054;11.130;2023-02-01T00:00:28;99717.56;;;2.90;44.05
50636;BME280;36598;46.054;11.130;2023-02-01T00:02:54;99717.13;;;2.88;43.99
50636;BME280;36598;46.054;11.130;2023-02-01T00:05:19;99720.53;;;2.41;44.98
50636;BME280;36598;46.054;11.130;2023-02-01T00:07:46;99721.25;;;2.25;46.10
50636;BME280;36598;46.054;11.130;2023-02-01T00:10:11;99708.53;;;2.17;45.98
50636;BME280;36598;46.054;11.130;2023-02-01T00:12:37;99708.41;;;2.26;45.88
50636;BME280;36598;46.054;11.130;2023-02-01T00:15:02;99704.84;;;2.38;45.11
50636;BME280;36598;46.054;11.130;2023-02-01T00:17:27;99709.25;;;2.14;46.53
50636;BME280;36598;46.054;11.130;2023-02-01T00:19:53;99716.41;;;2.47;45.96
50636;BME280;36598;46.054;11.130;2023-02-01T00:22:18;99711.56;;;2.40;46.79
50636;BME280;36598;46.054;11.130;2023-02-01T00:24:43;99710.94;;;2.47;45.99
50636;BME280;36598;46.054;11.130;2023-02-01T00:27:09;99712.00;;;2.02;46.49
50636;BME280;36598;46.054;11.130;2023-02-01T00:29:34;99713.06;;;2.25;46.21
50636;BME280;36598;46.054;11.130;2023-02-01T00:31:59;99713.75;;;2.22;46.90
50636;BME280;36598;46.054;11.130;2023-02-01T00:34:25;99705.06;;;1.92;48.27
50636;BME280;36598;46.054;11.130;2023-02-01T00:36:50;99710.41;;;2.41;47.07
50636;BME280;36598;46.054;11.130;2023-02-01T00:39:15;99712.53;;;2.48;47.10
50636;BME280;36598;46.054;11.130;2023-02-01T00:41:41;99704.16;;;1.88;48.29
50636;BME280;36598;46.054;11.130;2023-02-01T00:44:06;99703.03;;;2.30;47.23
50636;BME280;36598;46.054;11.130;2023-02-01T00:46:32;99700.31;;;2.30;46.80
50636;BME280;36598;46.054;11.130;2023-02-01T00:48:57;99704.84;;;2.38;47.07
50636;BME280;36598;46.054;11.130;2023-02-01T00:51:24;99696.44;;;1.90;47.99
50636;BME280;36598;46.054;11.130;2023-02-01T00:53:49;99693.00;;;2.06;47.08
50636;BME280;36598;46.054;11.130;2023-02-01T00:56:15;99689.13;;;2.07;47.60
50636;BME280;36598;46.054;11.130;2023-02-01T00:58:40;99687.81;;;2.29;47.34
50636;BME280;36598;46.054;11.130;2023-02-01T01:03:42;99700.88;;;1.95;47.28
50636;BME280;36598;46.054;11.130;2023-02-01T01:06:12;99697.00;;;1.96;46.75
50636;BME280;36598;46.054;11.130;2023-02-01T01:08:38;99696.91;;;2.33;46.48
50636;BME280;36598;46.054;11.130;2023-02-01T01:11:04;99703.31;;;2.12;46.13
50636;BME280;36598;46.054;11.130;2023-02-01T01:13:30;99699.31;;;2.22;46.78
50636;BME280;36598;46.054;11.130;2023-02-01T01:15:55;99699.88;;;2.28;46.28
50636;BME280;36598;46.054;11.130;2023-02-01T01:18:20;99710.13;;;1.54;47.76
50636;BME280;36598;46.054;11.130;2023-02-01T01:20:47;99709.13;;;1.46;47.79
50636;BME280;36598;46.054;11.130;2023-02-01T01:23:12;99705.13;;;1.68;47.21
50636;BME280;36598;46.054;11.130;2023-02-01T01:25:38;99704.78;;;1.57;47.06
50636;BME280;36598;46.054;11.130;2023-02-01T01:28:03;99704.16;;;1.88;47.28
50636;BME280;36598;46.054;11.130;2023-02-01T01:30:28;99703.06;;;1.77;48.46
50636;BME280;36598;46.054;11.130;2023-02-01T01:32:54;99710.84;;;2.03;46.77
50636;BME280;36598;46.054;11.130;2023-02-01T01:35:19;99700.63;;;2.00;47.47
50636;BME280;36598;46.054;11.130;2023-02-01T01:37:44;99697.25;;;1.66;47.98
50636;BME280;36598;46.054;11.130;2023-02-01T01:40:10;99699.34;;;1.20;48.69
50636;BME280;36598;46.054;11.130;2023-02-01T01:42:41;99696.03;;;1.27;48.45
50636;BME280;36598;46.054;11.130;2023-02-01T01:45:16;99702.47;;;1.84;47.23
50636;BME280;36598;46.054;11.130;2023-02-01T01:47:44;99704.84;;;1.97;47.65
50636;BME280;36598;46.054;11.130;2023-02-01T01:50:13;99704.63;;;1.90;47.13
50636;BME280;36598;46.054;11.130;2023-02-01T01:52:42;99704.88;;;1.73;47.99
50636;BME280;36598;46.054;11.130;2023-02-01T01:55:08;99696.34;;;1.87;46.95
50636;BME280;36598;46.054;11.130;2023-02-01T01:57:37;99692.28;;;1.56;47.67
50636;BME280;36598;46.054;11.130;2023-02-01T02:00:13;99694.00;;;1.61;48.21
50636;BME280;36598;46.054;11.130;2023-02-01T02:02:39;99689.06;;;1.91;47.89
50636;BME280;36598;46.054;11.130;2023-02-01T02:05:05;99683.97;;;1.77;47.57
50636;BME280;36598;46.054;11.130;2023-02-01T02:07:35;99690.47;;;1.48;48.67
50636;BME280;36598;46.054;11.130;2023-02-01T02:10:03;99676.03;;;1.47;48.90
50636;BME280;36598;46.054;11.130;2023-02-01T02:12:30;99685.69;;;1.57;48.78
50636;BME280;36598;46.054;11.130;2023-02-01T02:14:56;99678.28;;;1.82;48.31
50636;BME280;36598;46.054;11.130;2023-02-01T02:17:55;99674.00;;;1.97;47.65
50636;BME280;36598;46.054;11.130;2023-02-01T02:30:33;99673.19;;;1.44;49.14
50636;BME280;36598;46.054;11.130;2023-02-01T02:38:27;99660.88;;;1.74;48.56
50636;BME280;36598;46.054;11.130;2023-02-01T02:41:01;99657.19;;;1.55;49.09
50636;BME280;36598;46.054;11.130;2023-02-01T02:46:20;99654.78;;;1.53;49.31
50636;BME280;36598;46.054;11.130;2023-02-01T02:49:09;99659.31;;;1.73;48.95
50636;BME280;36598;46.054;11.130;2023-02-01T02:51:46;99661.84;;;1.30;49.46
50636;BME280;36598;46.054;11.130;2023-02-01T02:54:33;99659.53;;;1.68;48.82
50636;BME280;36598;46.054;11.130;2023-02-01T02:57:19;99653.81;;;1.86;47.98
50636;BME280;36598;46.054;11.130;2023-02-01T03:00:05;99659.28;;;1.86;48.28
50636;BME280;36598;46.054;11.130;2023-02-01T03:02:50;99655.91;;;1.64;47.99
50636;BME280;36598;46.054;11.130;2023-02-01T03:05:39;99653.41;;;1.71;48.40
50636;BME280;36598;46.054;11.130;2023-02-01T03:12:59;99654.81;;;1.16;49.35
50636;BME280;36598;46.054;11.130;2023-02-01T03:15:28;99655.13;;;1.15;48.93
50636;BME280;36598;46.054;11.130;2023-02-01T03:17:56;99655.47;;;1.01;49.94
50636;BME280;36598;46.054;11.130;2023-02-01T03:20:23;99647.75;;;1.28;49.39
50636;BME280;36598;46.054;11.130;2023-02-01T03:22:49;99661.63;;;1.35;48.81
50636;BME280;36598;46.054;11.130;2023-02-01T03:25:21;99657.06;;;1.51;49.39
50636;BME280;36598;46.054;11.130;2023-02-01T03:27:49;99658.44;;;1.33;49.93
50636;BME280;36598;46.054;11.130;2023-02-01T03:30:20;99654.22;;;1.60;48.46
50636;BME280;36598;46.054;11.130;2023-02-01T03:32:47;99644.78;;;1.57;49.15
50636;BME280;36598;46.054;11.130;2023-02-01T03:35:26;99648.22;;;1.05;50.10
50636;BME280;36598;46.054;11.130;2023-02-01T03:37:56;99645.03;;;1.28;49.76
50636;BME280;36598;46.054;11.130;2023-02-01T03:40:26;99651.28;;;1.40;49.57
50636;BME280;36598;46.054;11.130;2023-02-01T03:42:54;99663.75;;;1.54;48.87
50636;BME280;36598;46.054;11.130;2023-02-01T03:45:24;99658.69;;;1.03;50.32
50636;BME280;36598;46.054;11.130;2023-02-01T03:47:52;99659.56;;;0.83;51.02
50636;BME280;36598;46.054;11.130;2023-02-01T03:50:20;99657.06;;;1.02;51.09
50636;BME280;36598;46.054;11.130;2023-02-01T03:52:51;99655.13;;;1.15;50.86
50636;BME280;36598;46.054;11.130;2023-02-01T03:55:19;99655.69;;;0.84;51.27
50636;BME280;36598;46.054;11.130;2023-02-01T03:57:57;99658.19;;;1.01;51.03
50636;BME280;36598;46.054;11.130;2023-02-01T04:00:24;99649.91;;;0.97;51.17
50636;BME280;36598;46.054;11.130;2023-02-01T04:02:50;99652.63;;;0.85;51.65
50636;BME280;36598;46.054;11.130;2023-02-01T04:05:15;99656.16;;;0.86;51.28
50636;BME280;36598;46.054;11.130;2023-02-01T04:07:41;99664.00;;;0.99;51.17
50636;BME280;36598;46.054;11.130;2023-02-01T04:10:07;99662.72;;;0.85;51.20
50636;BME280;36598;46.054;11.130;2023-02-01T04:12:32;99663.44;;;1.18;50.22
50636;BME280;36598;46.054;11.130;2023-02-01T04:14:57;99666.16;;;1.06;50.54
50636;BME280;36598;46.054;11.130;2023-02-01T04:17:23;99676.81;;;0.87;50.57
50636;BME280;36598;46.054;11.130;2023-02-01T04:19:48;99671.94;;;1.05;50.30
50636;BME280;36598;46.054;11.130;2023-02-01T04:22:13;99677.75;;;1.15;50.54
50636;BME280;36598;46.054;11.130;2023-02-01T04:24:39;99676.63;;;1.29;50.15
50636;BME280;36598;46.054;11.130;2023-02-01T04:27:04;99670.47;;;1.19;50.26
50636;BME280;36598;46.054;11.130;2023-02-01T04:29:30;99670.47;;;1.32;50.61
50636;BME280;36598;46.054;11.130;2023-02-01T04:31:55;99680.03;;;1.25;50.55
50636;BME280;36598;46.054;11.130;2023-02-01T04:34:20;99675.50;;;1.42;49.75
50636;BME280;36598;46.054;11.130;2023-02-01T04:36:47;99667.53;;;1.00;50.84
50636;BME280;36598;46.054;11.130;2023-02-01T04:39:13;99660.44;;;0.74;51.65
50636;BME280;36598;46.054;11.130;2023-02-01T04:41:38;99667.28;;;1.05;51.36
50636;BME280;36598;46.054;11.130;2023-02-01T04:44:03;99664.34;;;1.10;51.27
50636;BME280;36598;46.054;11.130;2023-02-01T04:46:29;99664.78;;;0.42;53.06
50636;BME280;36598;46.054;11.130;2023-02-01T04:48:54;99662.53;;;0.44;52.47
50636;BME280;36598;46.054;11.130;2023-02-01T04:51:19;99664.91;;;0.46;52.46
50636;BME280;36598;46.054;11.130;2023-02-01T04:53:45;99674.22;;;0.90;52.00
50636;BME280;36598;46.054;11.130;2023-02-01T04:56:10;99667.06;;;0.98;51.13
50636;BME280;36598;46.054;11.130;2023-02-01T04:58:36;99668.88;;;1.06;51.47
50636;BME280;36598;46.054;11.130;2023-02-01T05:01:04;99676.69;;;0.83;52.02
50636;BME280;36598;46.054;11.130;2023-02-01T05:03:31;99668.78;;;1.15;51.12
50636;BME280;36598;46.054;11.130;2023-02-01T05:05:56;99661.59;;;0.98;51.85
50636;BME280;36598;46.054;11.130;2023-02-01T05:08:21;99669.78;;;0.86;51.52
50636;BME280;36598;46.054;11.130;2023-02-01T05:10:47;99671.91;;;0.35;53.53
50636;BME280;36598;46.054;11.130;2023-02-01T05:13:12;99666.69;;;0.75;52.24
50636;BME280;36598;46.054;11.130;2023-02-01T05:15:56;99674.31;;;0.94;51.79
50636;BME280;36598;46.054;11.130;2023-02-01T05:18:21;99670.81;;;1.06;51.32
50636;BME280;36598;46.054;11.130;2023-02-01T05:20:47;99669.53;;;0.79;52.01
50636;BME280;36598;46.054;11.130;2023-02-01T05:23:12;99681.75;;;0.72;52.57
50636;BME280;36598;46.054;11.130;2023-02-01T05:25:37;99676.66;;;0.38;52.86
50636;BME280;36598;46.054;11.130;2023-02-01T05:28:02;99667.56;;;0.67;52.43
50636;BME280;36598;46.054;11.130;2023-02-01T05:30:28;99672.41;;;0.49;53.70
50636;BME280;36598;46.054;11.130;2023-02-01T05:32:53;99664.94;;;0.58;52.87
50636;BME280;36598;46.054;11.130;2023-02-01T05:35:19;99669.28;;;0.71;52.85
50636;BME280;36598;46.054;11.130;2023-02-01T05:37:44;99675.22;;;0.86;52.17
50636;BME280;36598;46.054;11.130;2023-02-01T05:40:10;99673.59;;;0.60;52.44
50636;BME280;36598;46.054;11.130;2023-02-01T05:42:35;99668.31;;;0.43;52.44
50636;BME280;36598;46.054;11.130;2023-02-01T05:45:00;99666.44;;;0.68;52.64
50636;BME280;36598;46.054;11.130;2023-02-01T05:47:25;99670.03;;;0.47;53.13
50636;BME280;36598;46.054;11.130;2023-02-01T05:49:51;99661.09;;;0.71;52.88
50636;BME280;36598;46.054;11.130;2023-02-01T05:52:16;99657.16;;;0.36;53.19
50636;BME280;36598;46.054;11.130;2023-02-01T05:54:44;99652.13;;;0.25;53.28
50636;BME280;36598;46.054;11.130;2023-02-01T05:57:09;99656.78;;;0.58;52.98
50636;BME280;36598;46.054;11.130;2023-02-01T05:59:35;99660.72;;;0.48;53.25
50636;BME280;36598;46.054;11.130;2023-02-01T06:02:02;99661.72;;;0.11;53.87
50636;BME280;36598;46.054;11.130;2023-02-01T06:04:27;99661.06;;;-0.07;54.65
50636;BME280;36598;46.054;11.130;2023-02-01T06:06:52;99658.88;;;0.40;53.79
50636;BME280;36598;46.054;11.130;2023-02-01T06:09:17;99658.78;;;0.49;53.66
50636;BME280;36598;46.054;11.130;2023-02-01T06:11:43;99666.34;;;0.64;53.16
50636;BME280;36598;46.054;11.130;2023-02-01T06:14:08;99653.34;;;0.49;52.95
50636;BME280;36598;46.054;11.130;2023-02-01T06:16:33;99657.97;;;0.82;52.71
50636;BME280;36598;46.054;11.130;2023-02-01T06:18:59;99653.84;;;0.75;53.20
50636;BME280;36598;46.054;11.130;2023-02-01T06:21:24;99656.34;;;0.81;52.41
50636;BME280;36598;46.054;11.130;2023-02-01T06:23:50;99673.88;;;0.92;52.00
50636;BME280;36598;46.054;11.130;2023-02-01T06:26:15;99656.19;;;0.53;53.28
50636;BME280;36598;46.054;11.130;2023-02-01T06:28:43;99658.31;;;0.35;53.81
50636;BME280;36598;46.054;11.130;2023-02-01T06:31:08;99653.84;;;0.75;53.26
50636;BME280;36598;46.054;11.130;2023-02-01T06:33:34;99660.31;;;0.71;53.31
50636;BME280;36598;46.054;11.130;2023-02-01T06:36:00;99659.69;;;0.86;52.56
50636;BME280;36598;46.054;11.130;2023-02-01T06:38:26;99659.56;;;0.83;52.47
50636;BME280;36598;46.054;11.130;2023-02-01T06:40:51;99657.91;;;0.24;53.55
50636;BME280;36598;46.054;11.130;2023-02-01T06:43:17;99667.94;;;0.11;53.93
50636;BME280;36598;46.054;11.130;2023-02-01T06:45:42;99654.22;;;0.41;52.94
50636;BME280;36598;46.054;11.130;2023-02-01T06:48:07;99664.75;;;0.30;53.78
50636;BME280;36598;46.054;11.130;2023-02-01T06:50:32;99661.34;;;0.66;52.69
50636;BME280;36598;46.054;11.130;2023-02-01T06:52:59;99669.94;;;0.68;52.69
50636;BME280;36598;46.054;11.130;2023-02-01T06:55:24;99676.38;;;0.97;52.43
50636;BME280;36598;46.054;11.130;2023-02-01T06:57:52;99684.00;;;0.58;53.41
50636;BME280;36598;46.054;11.130;2023-02-01T07:00:17;99694.13;;;0.37;53.38
50636;BME280;36598;46.054;11.130;2023-02-01T07:02:43;99701.22;;;-0.04;54.91
50636;BME280;36598;46.054;11.130;2023-02-01T07:05:08;99702.53;;;0.65;53.68
50636;BME280;36598;46.054;11.130;2023-02-01T07:07:33;99697.72;;;0.95;52.23
50636;BME280;36598;46.054;11.130;2023-02-01T07:09:59;99698.16;;;0.97;52.54
50636;BME280;36598;46.054;11.130;2023-02-01T07:12:24;99712.03;;;1.04;52.38
50636;BME280;36598;46.054;11.130;2023-02-01T07:14:49;99709.66;;;1.15;51.80
50636;BME280;36598;46.054;11.130;2023-02-01T07:17:14;99717.19;;;0.39;53.45
50636;BME280;36598;46.054;11.130;2023-02-01T07:19:40;99720.06;;;0.88;52.86
50636;BME280;36598;46.054;11.130;2023-02-01T07:22:05;99730.78;;;1.18;51.34
50636;BME280;36598;46.054;11.130;2023-02-01T07:24:30;99729.44;;;1.12;51.52
50636;BME280;36598;46.054;11.130;2023-02-01T07:26:56;99737.06;;;1.31;51.12
50636;BME280;36598;46.054;11.130;2023-02-01T07:29:21;99727.97;;;1.63;50.53
50636;BME280;36598;46.054;11.130;2023-02-01T07:31:46;99736.84;;;1.60;50.13
50636;BME280;36598;46.054;11.130;2023-02-01T07:34:12;99726.81;;;1.40;50.44
50636;BME280;36598;46.054;11.130;2023-02-01T07:36:37;99721.69;;;1.75;50.03
50636;BME280;36598;46.054;11.130;2023-02-01T07:39:03;99722.94;;;1.78;50.46
50636;BME280;36598;46.054;11.130;2023-02-01T07:41:29;99716.56;;;1.98;49.96
50636;BME280;36598;46.054;11.130;2023-02-01T07:43:54;99719.53;;;1.81;50.74
50636;BME280;36598;46.054;11.130;2023-02-01T07:46:19;99713.66;;;2.19;49.38
50636;BME280;36598;46.054;11.130;2023-02-01T07:48:45;99721.78;;;1.91;49.81
50636;BME280;36598;46.054;11.130;2023-02-01T07:51:14;99716.63;;;2.14;49.61
50636;BME280;36598;46.054;11.130;2023-02-01T07:53:40;99709.91;;;2.23;48.71
50636;BME280;36598;46.054;11.130;2023-02-01T07:56:15;99710.03;;;1.50;50.27
50636;BME280;36598;46.054;11.130;2023-02-01T07:58:41;99707.50;;;1.69;50.76
50636;BME280;36598;46.054;11.130;2023-02-01T08:01:17;99719.44;;;1.77;50.18
50636;BME280;36598;46.054;11.130;2023-02-01T08:03:49;99710.69;;;1.47;50.89
50636;BME280;36598;46.054;11.130;2023-02-01T08:06:15;99716.88;;;1.96;50.12
50636;BME280;36598;46.054;11.130;2023-02-01T08:08:40;99724.75;;;1.86;49.46
50636;BME280;36598;46.054;11.130;2023-02-01T08:11:06;99715.69;;;1.69;50.57
50636;BME280;36598;46.054;11.130;2023-02-01T08:13:32;99710.44;;;1.89;50.21
50636;BME280;36598;46.054;11.130;2023-02-01T08:15:58;99718.53;;;1.61;50.89
50636;BME280;36598;46.054;11.130;2023-02-01T08:18:24;99712.94;;;1.94;50.70
50636;BME280;36598;46.054;11.130;2023-02-01T08:20:49;99707.47;;;1.94;50.74
50636;BME280;36598;46.054;11.130;2023-02-01T08:23:16;99700.56;;;2.96;48.45
50636;BME280;36598;46.054;11.130;2023-02-01T08:25:42;99691.38;;;10.57;34.36
50636;BME280;36598;46.054;11.130;2023-02-01T08:28:07;99700.88;;;16.86;24.75
50636;BME280;36598;46.054;11.130;2023-02-01T08:30:32;99699.16;;;19.40;20.93
50636;BME280;36598;46.054;11.130;2023-02-01T08:32:58;99691.94;;;19.89;19.68
50636;BME280;36598;46.054;11.130;2023-02-01T08:35:23;99690.41;;;23.21;16.24
50636;BME280;36598;46.054;11.130;2023-02-01T08:37:49;99680.47;;;26.80;13.85
50636;BME280;36598;46.054;11.130;2023-02-01T08:40:15;99677.91;;;27.15;13.45
50636;BME280;36598;46.054;11.130;2023-02-01T08:42:40;99684.06;;;27.42;12.92
50636;BME280;36598;46.054;11.130;2023-02-01T08:45:19;99678.38;;;26.63;13.03
50636;BME280;36598;46.054;11.130;2023-02-01T08:47:45;99672.75;;;24.75;14.23
50636;BME280;36598;46.054;11.130;2023-02-01T08:50:11;99672.25;;;27.96;12.22
50636;BME280;36598;46.054;11.130;2023-02-01T08:52:37;99674.06;;;29.66;11.08
50636;BME280;36598;46.054;11.130;2023-02-01T08:55:02;99678.91;;;28.15;11.84
50636;BME280;36598;46.054;11.130;2023-02-01T08:57:27;99676.03;;;30.72;10.49
50636;BME280;36598;46.054;11.130;2023-02-01T08:59:53;99680.00;;;31.99;9.24
50636;BME280;36598;46.054;11.130;2023-02-01T09:02:18;99672.31;;;32.62;9.33
50636;BME280;36598;46.054;11.130;2023-02-01T09:04:44;99661.53;;;33.39;8.36
50636;BME280;36598;46.054;11.130;2023-02-01T09:07:09;99660.13;;;31.22;9.54
50636;BME280;36598;46.054;11.130;2023-02-01T09:09:35;99664.03;;;32.93;8.92
50636;BME280;36598;46.054;11.130;2023-02-01T09:12:00;99670.13;;;33.39;8.30
50636;BME280;36598;46.054;11.130;2023-02-01T09:14:25;99657.09;;;33.59;8.00
50636;BME280;36598;46.054;11.130;2023-02-01T09:16:51;99664.97;;;32.20;8.72
50636;BME280;36598;46.054;11.130;2023-02-01T09:19:16;99653.97;;;33.00;8.68
50636;BME280;36598;46.054;11.130;2023-02-01T09:21:41;99650.84;;;34.71;7.24
50636;BME280;36598;46.054;11.130;2023-02-01T09:24:08;99658.28;;;34.51;7.60
50636;BME280;36598;46.054;11.130;2023-02-01T09:26:33;99658.22;;;35.89;6.85
50636;BME280;36598;46.054;11.130;2023-02-01T09:28:59;99661.63;;;36.10;7.00
50636;BME280;36598;46.054;11.130;2023-02-01T09:31:25;99664.53;;;35.87;6.90
50636;BME280;36598;46.054;11.130;2023-02-01T09:33:50;99672.75;;;35.12;7.12
50636;BME280;36598;46.054;11.130;2023-02-01T09:36:15;99667.94;;;35.30;6.96
50636;BME280;36598;46.054;11.130;2023-02-01T09:38:41;99664.81;;;37.55;6.04
50636;BME280;36598;46.054;11.130;2023-02-01T09:41:07;99666.91;;;36.87;6.39
50636;BME280;36598;46.054;11.130;2023-02-01T09:43:38;99665.88;;;36.02;6.25
50636;BME280;36598;46.054;11.130;2023-02-01T09:48:36;99660.94;;;38.76;5.04
50636;BME280;36598;46.054;11.130;2023-02-01T09:51:04;99660.41;;;36.21;6.45
50636;BME280;36598;46.054;11.130;2023-02-01T09:53:43;99663.19;;;33.06;7.61
50636;BME280;36598;46.054;11.130;2023-02-01T09:56:13;99661.19;;;36.54;6.24
50636;BME280;36598;46.054;11.130;2023-02-01T09:58:51;99656.69;;;34.35;6.90
50636;BME280;36598;46.054;11.130;2023-02-01T10:01:21;99655.50;;;38.26;5.54
50636;BME280;36598;46.054;11.130;2023-02-01T10:03:47;99664.41;;;36.66;6.37
50636;BME280;36598;46.054;11.130;2023-02-01T10:11:42;99646.38;;;34.47;7.07
50636;BME280;36598;46.054;11.130;2023-02-01T10:14:25;99641.53;;;37.35;6.14
50636;BME280;36598;46.054;11.130;2023-02-01T10:17:08;99637.16;;;36.59;6.16
50636;BME280;36598;46.054;11.130;2023-02-01T10:25:04;99635.84;;;37.97;5.76
50636;BME280;36598;46.054;11.130;2023-02-01T10:27:33;99630.69;;;33.03;7.63
50636;BME280;36598;46.054;11.130;2023-02-01T10:29:59;99633.47;;;32.75;7.87
50636;BME280;36598;46.054;11.130;2023-02-01T10:32:29;99619.00;;;37.34;5.74
50636;BME280;36598;46.054;11.130;2023-02-01T10:34:57;99620.75;;;34.49;7.11
50636;BME280;36598;46.054;11.130;2023-02-01T10:37:24;99625.53;;;37.17;6.17
50636;BME280;36598;46.054;11.130;2023-02-01T10:39:49;99604.09;;;38.88;5.10
50636;BME280;36598;46.054;11.130;2023-02-01T10:42:17;99597.50;;;39.73;5.16
50636;BME280;36598;46.054;11.130;2023-02-01T10:44:44;99604.25;;;37.30;5.89
50636;BME280;36598;46.054;11.130;2023-02-01T10:47:10;99607.06;;;39.27;5.41
50636;BME280;36598;46.054;11.130;2023-02-01T10:49:40;99606.66;;;36.74;5.91
50636;BME280;36598;46.054;11.130;2023-02-01T10:52:15;99606.31;;;39.65;5.14
50636;BME280;36598;46.054;11.130;2023-02-01T10:54:42;99601.53;;;35.36;6.95
50636;BME280;36598;46.054;11.130;2023-02-01T10:57:19;99584.94;;;39.02;5.38
50636;BME280;36598;46.054;11.130;2023-02-01T10:59:44;99583.41;;;35.74;6.73
50636;BME280;36598;46.054;11.130;2023-02-01T11:02:15;99582.81;;;34.66;7.08
50636;BME280;36598;46.054;11.130;2023-02-01T11:04:41;99589.00;;;36.70;6.57
50636;BME280;36598;46.054;11.130;2023-02-01T11:09:34;99575.84;;;36.26;6.48
50636;BME280;36598;46.054;11.130;2023-02-01T11:12:00;99585.44;;;33.09;7.46
50636;BME280;36598;46.054;11.130;2023-02-01T11:14:27;99583.31;;;34.34;7.21
50636;BME280;36598;46.054;11.130;2023-02-01T11:16:53;99574.91;;;37.41;5.88
50636;BME280;36598;46.054;11.130;2023-02-01T11:19:19;99558.03;;;34.25;7.38
50636;BME280;36598;46.054;11.130;2023-02-01T11:21:48;99551.28;;;37.70;5.92
50636;BME280;36598;46.054;11.130;2023-02-01T11:24:24;99552.06;;;37.35;5.99
50636;BME280;36598;46.054;11.130;2023-02-01T11:26:50;99545.75;;;33.57;7.42
50636;BME280;36598;46.054;11.130;2023-02-01T11:29:18;99544.09;;;33.70;7.56
50636;BME280;36598;46.054;11.130;2023-02-01T11:31:47;99547.75;;;36.84;6.09
50636;BME280;36598;46.054;11.130;2023-02-01T11:36:38;99532.97;;;37.57;5.48
50636;BME280;36598;46.054;11.130;2023-02-01T11:41:33;99537.66;;;36.26;6.49
50636;BME280;36598;46.054;11.130;2023-02-01T11:44:00;99535.38;;;35.84;6.61
50636;BME280;36598;46.054;11.130;2023-02-01T11:46:30;99531.72;;;33.02;8.27
50636;BME280;36598;46.054;11.130;2023-02-01T11:48:55;99526.59;;;34.04;7.79
50636;BME280;36598;46.054;11.130;2023-02-01T11:54:12;99513.97;;;35.14;7.05
50636;BME280;36598;46.054;11.130;2023-02-01T12:06:50;99496.75;;;29.06;10.78
50636;BME280;36598;46.054;11.130;2023-02-01T12:11:48;99478.06;;;27.07;11.40
50636;BME280;36598;46.054;11.130;2023-02-01T12:14:23;99470.97;;;25.94;12.21
50636;BME280;36598;46.054;11.130;2023-02-01T12:17:25;99461.41;;;24.49;13.48
50636;BME280;36598;46.054;11.130;2023-02-01T12:30:00;99456.53;;;19.87;16.88
50636;BME280;36598;46.054;11.130;2023-02-01T12:35:19;99443.03;;;18.94;17.83
50636;BME280;36598;46.054;11.130;2023-02-01T12:40:42;99434.09;;;17.56;19.22
50636;BME280;36598;46.054;11.130;2023-02-01T12:43:22;99427.38;;;17.32;19.47
50636;BME280;36598;46.054;11.130;2023-02-01T12:46:02;99426.38;;;17.69;19.27
50636;BME280;36598;46.054;11.130;2023-02-01T12:48:33;99427.44;;;17.41;19.86
50636;BME280;36598;46.054;11.130;2023-02-01T12:51:02;99410.13;;;16.16;20.77
50636;BME280;36598;46.054;11.130;2023-02-01T12:55:58;99405.22;;;16.20;22.19
50636;BME280;36598;46.054;11.130;2023-02-01T12:59:02;99397.28;;;16.19;21.86
50636;BME280;36598;46.054;11.130;2023-02-01T13:01:27;99381.22;;;16.10;21.44
50636;BME280;36598;46.054;11.130;2023-02-01T13:03:56;99379.75;;;15.93;21.66
50636;BME280;36598;46.054;11.130;2023-02-01T13:09:14;99373.13;;;15.48;21.67
50636;BME280;36598;46.054;11.130;2023-02-01T13:11:44;99370.25;;;16.28;21.15
50636;BME280;36598;46.054;11.130;2023-02-01T13:14:19;99372.44;;;16.46;21.30
50636;BME280;36598;46.054;11.130;2023-02-01T13:16:48;99368.84;;;15.98;21.52
50636;BME280;36598;46.054;11.130;2023-02-01T13:19:27;99364.34;;;15.75;21.65
50636;BME280;36598;46.054;11.130;2023-02-01T13:27:12;99350.69;;;14.97;22.84
50636;BME280;36598;46.054;11.130;2023-02-01T13:29:40;99353.47;;;15.39;22.10
50636;BME280;36598;46.054;11.130;2023-02-01T13:32:16;99351.94;;;15.38;22.27
50636;BME280;36598;46.054;11.130;2023-02-01T13:42:31;99350.28;;;15.92;22.02
50636;BME280;36598;46.054;11.130;2023-02-01T13:45:03;99345.81;;;15.56;21.97
50636;BME280;36598;46.054;11.130;2023-02-01T13:47:30;99359.00;;;15.94;21.44
50636;BME280;36598;46.054;11.130;2023-02-01T13:49:57;99356.31;;;16.03;21.27
50636;BME280;36598;46.054;11.130;2023-02-01T13:55:34;99354.88;;;15.98;21.46
50636;BME280;36598;46.054;11.130;2023-02-01T13:57:41;99365.69;;;15.84;21.87
50636;BME280;36598;46.054;11.130;2023-02-01T14:23:43;99324.13;;;14.35;24.24
50636;BME280;36598;46.054;11.130;2023-02-01T14:26:10;99329.28;;;13.71;24.81
50636;BME280;36598;46.054;11.130;2023-02-01T14:28:36;99339.00;;;14.12;24.30
50636;BME280;36598;46.054;11.130;2023-02-01T14:31:13;99334.84;;;14.03;24.79
50636;BME280;36598;46.054;11.130;2023-02-01T14:33:40;99337.44;;;13.94;24.98
50636;BME280;36598;46.054;11.130;2023-02-01T14:36:07;99332.81;;;13.55;25.50
50636;BME280;36598;46.054;11.130;2023-02-01T14:38:34;99338.13;;;13.30;25.96
50636;BME280;36598;46.054;11.130;2023-02-01T14:41:11;99344.81;;;12.92;26.11
50636;BME280;36598;46.054;11.130;2023-02-01T14:43:49;99350.72;;;13.14;25.44
50636;BME280;36598;46.054;11.130;2023-02-01T14:46:15;99336.78;;;12.98;26.23
50636;BME280;36598;46.054;11.130;2023-02-01T14:48:42;99334.03;;;13.14;26.23
50636;BME280;36598;46.054;11.130;2023-02-01T14:51:08;99326.16;;;13.13;25.79
50636;BME280;36598;46.054;11.130;2023-02-01T14:53:36;99323.38;;;13.13;26.65
50636;BME280;36598;46.054;11.130;2023-02-01T14:58:57;99324.75;;;12.41;27.58
50636;BME280;36598;46.054;11.130;2023-02-01T15:01:31;99322.13;;;12.11;29.58
50636;BME280;36598;46.054;11.130;2023-02-01T15:04:04;99319.41;;;12.31;27.96
50636;BME280;36598;46.054;11.130;2023-02-01T15:11:52;99309.03;;;11.88;29.63